Time;durP1;ratioP1;P1;durP2;ratioP2;P2;SDS_P1;SDS_P2;PMS_P1;PMS_P2;Temp;Humidity;BMP_temperature;BMP_pressure;BME280_temperature;BME280_humidity;BME280_pressure;Samples;Min_cycle;Max_cycle;Signal;HPM_P1;HPM_P2
2022/03/08 00:00:33;;;;;;;1.23;0.40;;;22.30;99.90;;;;;;5008894;28;20038;-73
2022/03/08 00:03:01;;;;;;;1.27;0.22;;;22.30;99.90;;;;;;5009097;28;20453;-76
2022/03/08 00:05:28;;;;;;;0.40;0.10;;;22.30;99.90;;;;;;5010427;28;20067;-77
2022/03/08 00:07:57;;;;;;;0.32;0.17;;;22.30;99.90;;;;;;5009689;28;20029;-79
2022/03/08 00:10:26;;;;;;;2.05;0.32;;;22.40;99.90;;;;;;5012303;28;20025;-76
2022/03/08 00:12:54;;;;;;;1.00;0.10;;;22.40;99.90;;;;;;5003093;28;20045;-78
2022/03/08 00:15:24;;;;;;;0.90;0.52;;;22.50;99.90;;;;;;5009991;28;20580;-74
2022/03/08 00:17:53;;;;;;;2.35;0.20;;;22.50;99.90;;;;;;5003818;28;20026;-73
2022/03/08 00:20:20;;;;;;;0.35;0.15;;;22.60;99.90;;;;;;5007229;28;20038;-73
2022/03/08 00:22:48;;;;;;;0.50;0.20;;;22.70;99.90;;;;;;5018426;28;20034;-74
2022/03/08 00:25:16;;;;;;;0.30;0.20;;;22.60;99.90;;;;;;5004497;28;20034;-73
2022/03/08 00:27:47;;;;;;;0.32;0.30;;;22.70;99.90;;;;;;5012412;28;20022;-74
2022/03/08 00:30:20;;;;;;;0.40;0.15;;;22.70;99.90;;;;;;5013741;28;20056;-73
2022/03/08 00:32:48;;;;;;;0.20;0.20;;;22.80;99.90;;;;;;5008017;28;20028;-74
2022/03/08 00:35:16;;;;;;;0.32;0.10;;;22.80;99.90;;;;;;5007942;28;20108;-74
2022/03/08 00:37:47;;;;;;;0.93;0.20;;;22.80;99.90;;;;;;5007417;28;20037;-74
2022/03/08 00:40:16;;;;;;;0.30;0.20;;;22.90;99.90;;;;;;5006261;28;20488;-73
2022/03/08 00:42:44;;;;;;;0.45;0.20;;;22.90;99.90;;;;;;5010881;28;20026;-74
2022/03/08 00:45:11;;;;;;;0.90;0.30;;;23.00;99.90;;;;;;5013089;28;20045;-74
2022/03/08 00:47:40;;;;;;;0.63;0.25;;;22.90;99.90;;;;;;5012395;28;20360;-74
2022/03/08 00:50:11;;;;;;;0.50;0.20;;;23.00;99.90;;;;;;5009794;28;20028;-74
2022/03/08 00:52:39;;;;;;;0.57;0.10;;;23.00;99.90;;;;;;5011823;28;20080;-73
2022/03/08 00:55:09;;;;;;;0.28;0.20;;;23.10;99.90;;;;;;5015636;28;20057;-74
2022/03/08 00:57:37;;;;;;;0.32;0.10;;;23.10;99.90;;;;;;5003942;28;20117;-74
2022/03/08 01:00:10;;;;;;;0.30;0.10;;;23.20;99.90;;;;;;5006573;28;20104;-75
2022/03/08 01:02:37;;;;;;;0.75;0.20;;;23.10;99.90;;;;;;5005515;28;20048;-74
2022/03/08 01:05:05;;;;;;;0.30;0.20;;;23.10;99.90;;;;;;5013432;28;20125;-75
2022/03/08 01:07:32;;;;;;;0.38;0.10;;;23.10;99.90;;;;;;5005255;28;20080;-75
2022/03/08 01:10:00;;;;;;;3.40;0.35;;;23.10;99.90;;;;;;5003089;28;20033;-74
2022/03/08 01:12:27;;;;;;;0.50;0.20;;;23.10;99.90;;;;;;5005585;28;20037;-76
2022/03/08 01:14:55;;;;;;;0.85;0.10;;;23.20;99.90;;;;;;5007450;28;20058;-74
2022/03/08 01:17:22;;;;;;;0.35;0.13;;;23.20;99.90;;;;;;5007143;28;20026;-74
2022/03/08 01:19:49;;;;;;;0.20;0.13;;;23.10;99.90;;;;;;4998472;28;20437;-73
2022/03/08 01:22:17;;;;;;;0.30;0.10;;;23.10;99.90;;;;;;5001727;28;20048;-74
2022/03/08 01:24:44;;;;;;;0.10;0.10;;;23.10;99.90;;;;;;5004835;28;20080;-73
2022/03/08 01:27:11;;;;;;;0.35;0.20;;;23.00;99.90;;;;;;5003167;28;20033;-73
2022/03/08 01:29:39;;;;;;;0.63;0.17;;;23.00;99.90;;;;;;5005312;28;20057;-74
2022/03/08 01:32:07;;;;;;;0.88;0.17;;;23.00;99.90;;;;;;5004992;28;20085;-73
2022/03/08 01:34:34;;;;;;;0.55;0.20;;;23.00;99.90;;;;;;5010944;28;20040;-74
2022/03/08 01:37:03;;;;;;;0.95;0.10;;;23.00;99.90;;;;;;5003627;28;20029;-74
2022/03/08 01:39:30;;;;;;;0.35;0.17;;;23.00;99.90;;;;;;5010923;28;20045;-73
2022/03/08 01:41:58;;;;;;;5.15;0.82;;;23.00;99.90;;;;;;5006941;28;20260;-74
2022/03/08 01:44:26;;;;;;;0.35;0.10;;;22.90;99.90;;;;;;5011145;28;20033;-74
2022/03/08 01:46:53;;;;;;;0.30;0.20;;;22.90;99.90;;;;;;5011786;28;20460;-73
2022/03/08 01:49:20;;;;;;;0.20;0.10;;;22.90;99.90;;;;;;5006911;28;20055;-73
2022/03/08 01:51:48;;;;;;;0.17;0.10;;;22.90;99.90;;;;;;5010564;28;20077;-73
2022/03/08 01:54:15;;;;;;;0.17;0.10;;;22.90;99.90;;;;;;5010260;28;20048;-74
2022/03/08 01:56:44;;;;;;;0.52;0.52;;;22.90;99.90;;;;;;5010255;28;20026;-74
2022/03/08 01:59:11;;;;;;;0.43;0.10;;;22.90;99.90;;;;;;5007885;28;20422;-73
2022/03/08 02:01:38;;;;;;;1.08;0.10;;;22.90;99.90;;;;;;5007194;28;20042;-76
2022/03/08 02:04:06;;;;;;;0.32;0.10;;;22.90;99.90;;;;;;4999733;28;20068;-74
2022/03/08 02:06:33;;;;;;;0.70;0.10;;;22.90;99.90;;;;;;5009737;28;20060;-75
2022/03/08 02:09:01;;;;;;;0.25;0.10;;;22.80;99.90;;;;;;5013156;28;20030;-74
2022/03/08 02:11:30;;;;;;;0.10;0.10;;;22.80;99.90;;;;;;5010525;28;20380;-73
2022/03/08 02:13:57;;;;;;;0.45;0.40;;;22.90;99.90;;;;;;5010564;28;20030;-73
2022/03/08 02:16:25;;;;;;;1.10;0.10;;;22.90;99.90;;;;;;5008723;28;20037;-74
2022/03/08 02:18:52;;;;;;;0.17;0.10;;;22.90;99.90;;;;;;5010074;28;20413;-75
2022/03/08 02:21:19;;;;;;;0.13;0.10;;;22.80;99.90;;;;;;5009359;28;20048;-74
2022/03/08 02:23:47;;;;;;;0.40;0.20;;;22.80;99.90;;;;;;5002392;28;20022;-75
2022/03/08 02:26:14;;;;;;;0.63;0.40;;;22.80;99.90;;;;;;5002736;28;20022;-74
2022/03/08 02:28:42;;;;;;;1.45;0.13;;;22.80;99.90;;;;;;5011393;28;20032;-74
2022/03/08 02:31:09;;;;;;;0.10;0.10;;;22.80;99.90;;;;;;5009876;28;20330;-74
2022/03/08 02:33:37;;;;;;;0.05;0.00;;;22.80;99.90;;;;;;5008778;28;20096;-74
2022/03/08 02:36:06;;;;;;;0.00;0.00;;;22.80;99.90;;;;;;5009586;28;20021;-75
2022/03/08 02:38:34;;;;;;;0.03;0.00;;;22.80;99.90;;;;;;5010320;28;20083;-74
2022/03/08 02:41:01;;;;;;;1.08;0.00;;;22.70;99.90;;;;;;5010624;28;20045;-76
2022/03/08 02:43:29;;;;;;;0.10;0.03;;;22.70;99.90;;;;;;5011401;28;20050;-74
2022/03/08 02:45:56;;;;;;;0.00;0.00;;;22.70;99.90;;;;;;5008734;28;20065;-77
2022/03/08 02:48:27;;;;;;;0.10;0.00;;;22.70;99.90;;;;;;5008598;28;20030;-73
2022/03/08 02:50:55;;;;;;;0.10;0.00;;;22.70;99.90;;;;;;5009135;28;20033;-73
2022/03/08 02:53:22;;;;;;;0.10;0.10;;;22.70;99.90;;;;;;5011574;28;20060;-72
2022/03/08 02:55:50;;;;;;;0.10;0.10;;;22.70;99.90;;;;;;5006705;28;20045;-73
2022/03/08 02:58:17;;;;;;;0.57;0.10;;;22.70;99.90;;;;;;5010560;28;20022;-72
2022/03/08 03:00:45;;;;;;;0.10;0.00;;;22.70;99.90;;;;;;5006881;28;20044;-73
2022/03/08 03:03:14;;;;;;;0.20;0.10;;;22.70;99.90;;;;;;5011591;28;20032;-74
2022/03/08 03:05:41;;;;;;;0.10;0.05;;;22.60;99.90;;;;;;5001467;28;20030;-75
2022/03/08 03:08:09;;;;;;;0.17;0.10;;;22.60;99.90;;;;;;5007254;28;20075;-74
2022/03/08 03:10:36;;;;;;;0.32;0.15;;;22.60;99.90;;;;;;5001888;28;20042;-73
2022/03/08 03:13:04;;;;;;;1.00;0.45;;;22.60;99.90;;;;;;5002689;28;20026;-73
2022/03/08 03:15:32;;;;;;;0.17;0.10;;;22.60;99.90;;;;;;5000887;28;20072;-74
2022/03/08 03:18:00;;;;;;;0.10;0.10;;;22.60;99.90;;;;;;5009562;28;20021;-74
2022/03/08 03:20:28;;;;;;;1.08;0.30;;;22.60;99.90;;;;;;5007968;28;20115;-74
2022/03/08 03:22:55;;;;;;;1.35;0.10;;;22.60;99.90;;;;;;4999268;28;20029;-74
2022/03/08 03:25:23;;;;;;;0.65;0.10;;;22.60;99.90;;;;;;4999940;28;20041;-73
2022/03/08 03:27:50;;;;;;;1.80;0.17;;;22.50;99.90;;;;;;5006497;28;20121;-74
2022/03/08 03:30:18;;;;;;;0.10;0.00;;;22.60;99.90;;;;;;4999935;28;20038;-75
2022/03/08 03:32:46;;;;;;;0.70;0.45;;;22.60;99.90;;;;;;5005635;28;20022;-74
2022/03/08 03:35:15;;;;;;;0.43;0.15;;;22.50;99.90;;;;;;5005120;28;20030;-75
2022/03/08 03:37:43;;;;;;;0.68;0.10;;;22.60;99.90;;;;;;4998060;28;20042;-74
2022/03/08 03:40:10;;;;;;;0.10;0.00;;;22.60;99.90;;;;;;4999355;28;20094;-74
2022/03/08 03:42:38;;;;;;;2.60;0.95;;;22.50;99.90;;;;;;5008970;28;20429;-74
2022/03/08 03:45:06;;;;;;;1.45;0.10;;;22.50;99.90;;;;;;5012176;28;20030;-74
2022/03/08 03:47:34;;;;;;;0.20;0.20;;;22.50;99.90;;;;;;5009205;28;20042;-73
2022/03/08 03:50:01;;;;;;;0.17;0.10;;;22.50;99.90;;;;;;5008299;28;20033;-74
2022/03/08 03:52:29;;;;;;;0.00;0.00;;;22.40;99.90;;;;;;5009515;28;20119;-73
2022/03/08 03:54:56;;;;;;;1.55;0.10;;;22.40;99.90;;;;;;5008933;28;20050;-73
2022/03/08 03:57:24;;;;;;;0.20;0.00;;;22.40;99.90;;;;;;5005561;28;20033;-74
2022/03/08 03:59:51;;;;;;;0.20;0.00;;;22.40;99.90;;;;;;5002485;28;20038;-74
2022/03/08 04:02:18;;;;;;;0.20;0.00;;;22.30;99.90;;;;;;5010531;28;20038;-74
2022/03/08 04:04:46;;;;;;;0.28;0.10;;;22.30;99.90;;;;;;5010289;28;20055;-75
2022/03/08 04:07:13;;;;;;;0.10;0.00;;;22.30;99.90;;;;;;5008113;28;20053;-74
2022/03/08 04:09:40;;;;;;;0.20;0.10;;;22.30;99.90;;;;;;5010080;28;20030;-74
2022/03/08 04:12:08;;;;;;;0.20;0.00;;;22.20;99.90;;;;;;5008031;28;20877;-74
2022/03/08 04:14:36;;;;;;;0.15;0.00;;;22.20;99.90;;;;;;5005208;28;20113;-74
2022/03/08 04:17:04;;;;;;;0.25;0.00;;;22.20;99.90;;;;;;5005053;28;20057;-74
2022/03/08 04:19:31;;;;;;;0.00;0.00;;;22.10;99.90;;;;;;5007735;28;20031;-73
2022/03/08 04:21:58;;;;;;;0.52;0.10;;;22.10;99.90;;;;;;5008640;28;20033;-75
2022/03/08 04:24:27;;;;;;;0.00;0.00;;;22.10;99.90;;;;;;5004309;28;20186;-74
2022/03/08 04:26:54;;;;;;;0.28;0.00;;;22.10;99.90;;;;;;5007991;28;20113;-73
2022/03/08 04:29:22;;;;;;;0.63;0.10;;;22.10;99.90;;;;;;5008856;28;20096;-73
2022/03/08 04:31:49;;;;;;;0.20;0.20;;;22.10;99.90;;;;;;5008134;28;20038;-72
2022/03/08 04:34:16;;;;;;;0.52;0.10;;;22.00;99.90;;;;;;5009889;28;20026;-72
2022/03/08 04:36:44;;;;;;;0.03;0.00;;;21.90;99.90;;;;;;5005442;28;20113;-73
2022/03/08 04:39:11;;;;;;;0.68;0.15;;;21.90;99.90;;;;;;5008621;28;20022;-72
2022/03/08 04:41:38;;;;;;;0.13;0.00;;;21.90;99.90;;;;;;5006251;28;20051;-72
2022/03/08 04:44:06;;;;;;;0.15;0.10;;;21.90;99.90;;;;;;5010723;28;20314;-74
2022/03/08 04:46:33;;;;;;;0.22;0.00;;;21.90;99.90;;;;;;5008652;28;20104;-74
2022/03/08 04:49:01;;;;;;;0.30;0.10;;;22.00;99.90;;;;;;5006778;28;20120;-74
2022/03/08 04:51:28;;;;;;;0.55;0.10;;;22.00;99.90;;;;;;5008549;28;20026;-73
2022/03/08 04:53:55;;;;;;;0.40;0.10;;;22.00;99.90;;;;;;5018857;28;20392;-73
2022/03/08 04:56:23;;;;;;;0.00;0.00;;;22.00;99.90;;;;;;5021131;28;20070;-73
2022/03/08 04:58:52;;;;;;;0.65;0.10;;;22.00;99.90;;;;;;5012153;28;20076;-73
2022/03/08 05:01:19;;;;;;;1.67;0.15;;;21.90;99.90;;;;;;5000365;28;20045;-74
2022/03/08 05:03:47;;;;;;;0.50;0.43;;;21.90;99.90;;;;;;5010155;28;20033;-73
2022/03/08 05:06:14;;;;;;;0.60;0.10;;;22.00;99.90;;;;;;5012051;28;20064;-72
2022/03/08 05:08:41;;;;;;;0.35;0.10;;;22.00;99.90;;;;;;5007304;28;20116;-74
2022/03/08 05:11:09;;;;;;;3.55;0.30;;;22.00;99.90;;;;;;4999784;28;20018;-74
2022/03/08 05:13:37;;;;;;;0.43;0.00;;;22.00;99.90;;;;;;5007430;28;20041;-74
2022/03/08 05:16:06;;;;;;;1.08;0.10;;;22.10;99.90;;;;;;5003451;28;20092;-74
2022/03/08 05:18:33;;;;;;;0.10;0.05;;;21.90;99.90;;;;;;5010415;28;20034;-74
2022/03/08 05:21:00;;;;;;;0.55;0.38;;;21.90;99.90;;;;;;5009984;28;20424;-74
2022/03/08 05:23:28;;;;;;;2.38;0.05;;;21.80;99.90;;;;;;5010684;28;20054;-74
2022/03/08 05:25:55;;;;;;;1.13;0.10;;;21.70;99.90;;;;;;5008101;28;20028;-75
2022/03/08 05:28:22;;;;;;;0.05;0.05;;;21.70;99.90;;;;;;5007023;28;20037;-75
2022/03/08 05:30:51;;;;;;;0.40;0.10;;;21.60;99.90;;;;;;5010822;28;20115;-73
2022/03/08 05:33:18;;;;;;;0.85;0.25;;;21.50;99.90;;;;;;5004161;28;20034;-74
2022/03/08 05:35:46;;;;;;;1.10;0.10;;;21.50;99.90;;;;;;5011204;28;20033;-74
2022/03/08 05:38:13;;;;;;;1.52;0.10;;;21.30;99.90;;;;;;5000774;28;20025;-74
2022/03/08 05:40:40;;;;;;;0.10;0.10;;;21.30;99.90;;;;;;5010121;28;20053;-75
2022/03/08 05:43:08;;;;;;;0.22;0.10;;;21.20;99.90;;;;;;5004107;28;20030;-74
2022/03/08 05:45:35;;;;;;;0.85;0.10;;;21.20;99.90;;;;;;5002968;28;20084;-74
2022/03/08 05:48:02;;;;;;;0.10;0.10;;;21.20;99.90;;;;;;5009566;28;20120;-73
2022/03/08 05:50:30;;;;;;;0.95;0.52;;;21.10;99.90;;;;;;5007719;28;20038;-73
2022/03/08 05:52:57;;;;;;;1.00;0.13;;;21.20;99.90;;;;;;5009458;28;20083;-73
2022/03/08 05:55:25;;;;;;;1.85;0.15;;;21.20;99.90;;;;;;5010532;28;20049;-73
2022/03/08 05:57:52;;;;;;;0.20;0.00;;;21.10;99.90;;;;;;5009059;28;20033;-73
2022/03/08 06:00:20;;;;;;;1.65;0.40;;;21.10;99.90;;;;;;5010143;28;20045;-73
2022/03/08 06:02:47;;;;;;;2.50;0.10;;;21.10;99.90;;;;;;5008576;28;20054;-74
2022/03/08 06:05:15;;;;;;;1.33;0.40;;;21.10;99.90;;;;;;5010647;28;20037;-73
2022/03/08 06:07:42;;;;;;;2.03;0.10;;;21.00;99.90;;;;;;5011586;28;20040;-74
2022/03/08 06:10:11;;;;;;;2.03;0.03;;;21.00;99.90;;;;;;5007956;28;20036;-74
2022/03/08 06:12:38;;;;;;;2.47;0.20;;;20.90;99.90;;;;;;5009046;28;20030;-74
2022/03/08 06:15:06;;;;;;;0.45;0.00;;;20.80;99.90;;;;;;5007213;28;20093;-73
2022/03/08 06:17:34;;;;;;;1.08;0.15;;;20.80;99.90;;;;;;5008685;28;20026;-72
2022/03/08 06:20:01;;;;;;;0.40;0.10;;;20.80;99.90;;;;;;5010905;28;20077;-72
2022/03/08 06:22:28;;;;;;;1.67;0.10;;;20.70;99.90;;;;;;5006975;28;20122;-73
2022/03/08 06:24:56;;;;;;;0.30;0.03;;;20.70;99.90;;;;;;5011119;28;20429;-73
2022/03/08 06:27:23;;;;;;;0.03;0.00;;;20.70;99.90;;;;;;5009461;28;20113;-73
2022/03/08 06:29:51;;;;;;;0.82;0.10;;;20.70;99.90;;;;;;5010435;28;20030;-74
2022/03/08 06:32:19;;;;;;;0.00;0.00;;;20.70;99.90;;;;;;5008726;28;20022;-73
2022/03/08 06:34:47;;;;;;;0.00;0.00;;;20.70;99.90;;;;;;5009262;28;20049;-74
2022/03/08 06:37:14;;;;;;;0.10;0.10;;;20.60;99.90;;;;;;5003578;28;20040;-72
2022/03/08 06:39:41;;;;;;;0.10;0.00;;;20.70;99.90;;;;;;5010334;28;20033;-71
2022/03/08 06:42:09;;;;;;;0.28;0.05;;;20.70;99.90;;;;;;4999090;28;20065;-73
2022/03/08 06:44:40;;;;;;;0.40;0.00;;;20.80;99.90;;;;;;5002003;28;20034;-72
2022/03/08 06:47:09;;;;;;;0.15;0.10;;;20.80;99.90;;;;;;5003897;28;20073;-72
2022/03/08 06:49:40;;;;;;;0.25;0.05;;;20.70;99.90;;;;;;5006244;28;20520;-74
2022/03/08 06:52:13;;;;;;;5.05;0.30;;;20.70;99.90;;;;;;5004374;28;20387;-73
2022/03/08 06:54:40;;;;;;;0.75;0.15;;;20.70;99.90;;;;;;5007215;28;20046;-73
2022/03/08 06:57:08;;;;;;;1.23;0.10;;;20.70;99.90;;;;;;5006910;28;20080;-72
2022/03/08 06:59:36;;;;;;;0.10;0.00;;;20.60;99.90;;;;;;5004831;28;20053;-72
2022/03/08 07:02:03;;;;;;;0.30;0.00;;;20.70;99.90;;;;;;5003176;28;20069;-72
2022/03/08 07:04:31;;;;;;;0.20;0.10;;;20.80;99.90;;;;;;5008352;28;20022;-73
2022/03/08 07:06:58;;;;;;;0.03;0.00;;;20.80;99.90;;;;;;5005293;28;20038;-72
2022/03/08 07:09:26;;;;;;;0.00;0.00;;;20.80;99.90;;;;;;5010174;28;20040;-72
2022/03/08 07:11:53;;;;;;;1.27;0.10;;;20.80;99.90;;;;;;4999843;28;20021;-73
2022/03/08 07:14:21;;;;;;;0.65;0.03;;;20.70;99.90;;;;;;4995296;28;20499;-72
2022/03/08 07:16:49;;;;;;;0.73;0.00;;;20.70;99.90;;;;;;4998911;28;20038;-73
2022/03/08 07:19:17;;;;;;;0.32;0.03;;;20.70;99.90;;;;;;5006746;28;20106;-71
2022/03/08 07:21:45;;;;;;;0.00;0.00;;;20.60;99.90;;;;;;5002620;28;20465;-72
2022/03/08 07:24:14;;;;;;;0.10;0.00;;;20.60;99.90;;;;;;5007253;28;20014;-72
2022/03/08 07:26:42;;;;;;;0.55;0.00;;;20.60;99.90;;;;;;5004414;28;20057;-73
2022/03/08 07:29:09;;;;;;;0.52;0.00;;;20.70;99.90;;;;;;5002344;28;20045;-73
2022/03/08 07:31:37;;;;;;;0.00;0.00;;;20.60;99.90;;;;;;5001757;28;20108;-73
2022/03/08 07:34:04;;;;;;;0.10;0.00;;;20.60;99.90;;;;;;5005172;28;20034;-72
2022/03/08 07:36:31;;;;;;;0.08;0.00;;;20.60;99.90;;;;;;4998889;28;20165;-74
2022/03/08 07:38:59;;;;;;;0.00;0.00;;;20.60;99.90;;;;;;4997369;28;20053;-73
2022/03/08 07:41:26;;;;;;;0.40;0.00;;;20.60;99.90;;;;;;4998911;28;20052;-74
2022/03/08 07:43:54;;;;;;;0.00;0.00;;;20.50;99.90;;;;;;4998623;28;20026;-73
2022/03/08 07:46:21;;;;;;;0.00;0.00;;;20.60;99.90;;;;;;4998983;28;20064;-73
2022/03/08 07:48:48;;;;;;;1.65;0.05;;;20.50;99.90;;;;;;5001988;28;20026;-74
2022/03/08 07:51:16;;;;;;;0.00;0.00;;;20.50;99.90;;;;;;5010465;28;20027;-74
2022/03/08 07:53:43;;;;;;;0.00;0.00;;;20.50;99.90;;;;;;5000189;28;20045;-74
2022/03/08 07:56:10;;;;;;;0.10;0.00;;;20.50;99.90;;;;;;5000916;28;20025;-72
2022/03/08 07:58:40;;;;;;;1.98;0.03;;;20.50;99.90;;;;;;5001810;28;20033;-73
2022/03/08 08:01:07;;;;;;;0.00;0.00;;;20.40;99.90;;;;;;4999299;28;20120;-73
2022/03/08 08:03:35;;;;;;;0.20;0.20;;;20.40;99.90;;;;;;4998766;28;20062;-74
2022/03/08 08:06:03;;;;;;;0.00;0.00;;;20.40;99.90;;;;;;4999322;28;20018;-73
2022/03/08 08:08:30;;;;;;;0.17;0.00;;;20.40;99.90;;;;;;4999491;28;20022;-73
2022/03/08 08:10:58;;;;;;;0.15;0.00;;;20.40;99.90;;;;;;4997071;28;20033;-73
2022/03/08 08:13:25;;;;;;;0.10;0.00;;;20.40;99.90;;;;;;5001403;28;20025;-73
2022/03/08 08:15:54;;;;;;;0.00;0.00;;;20.30;99.90;;;;;;4997777;28;20072;-74
2022/03/08 08:18:21;;;;;;;0.00;0.00;;;20.30;99.90;;;;;;5001491;28;20052;-74
2022/03/08 08:20:49;;;;;;;0.00;0.00;;;20.30;99.90;;;;;;4998777;28;20071;-73
2022/03/08 08:23:16;;;;;;;0.00;0.00;;;20.30;99.90;;;;;;5000525;28;20043;-73
2022/03/08 08:25:44;;;;;;;1.25;0.10;;;20.20;99.90;;;;;;4996487;28;20034;-73
2022/03/08 08:28:11;;;;;;;0.00;0.00;;;20.20;99.90;;;;;;5003297;28;20026;-74
2022/03/08 08:30:38;;;;;;;0.00;0.00;;;20.20;99.90;;;;;;5003102;28;20037;-74
2022/03/08 08:33:06;;;;;;;0.08;0.00;;;20.20;99.90;;;;;;5002147;28;20022;-73
2022/03/08 08:35:33;;;;;;;0.00;0.00;;;20.20;99.90;;;;;;5003344;28;20034;-72
2022/03/08 08:38:01;;;;;;;0.30;0.00;;;20.20;99.90;;;;;;5011881;28;20018;-72
2022/03/08 08:40:28;;;;;;;0.00;0.00;;;20.20;99.90;;;;;;5008762;28;20539;-74
2022/03/08 08:42:56;;;;;;;0.00;0.00;;;20.20;99.90;;;;;;5010674;28;20026;-73
2022/03/08 08:45:23;;;;;;;0.00;0.00;;;20.20;99.90;;;;;;5006008;28;20102;-73
2022/03/08 08:47:50;;;;;;;0.00;0.00;;;20.30;99.90;;;;;;5010830;28;20026;-73
2022/03/08 08:50:18;;;;;;;0.70;0.22;;;20.20;99.90;;;;;;5010900;28;20022;-74
2022/03/08 08:52:46;;;;;;;0.00;0.00;;;20.20;99.90;;;;;;5012704;28;20034;-73
2022/03/08 08:55:13;;;;;;;0.03;0.00;;;20.20;99.90;;;;;;5002721;28;20489;-73
2022/03/08 08:57:41;;;;;;;0.00;0.00;;;20.20;99.90;;;;;;5007833;28;20053;-72
2022/03/08 09:00:09;;;;;;;0.57;0.00;;;20.20;99.90;;;;;;4996803;28;20042;-73
2022/03/08 09:02:40;;;;;;;0.30;0.00;;;20.20;99.90;;;;;;5010216;28;20041;-75
2022/03/08 09:05:09;;;;;;;0.00;0.00;;;20.20;99.90;;;;;;5009420;28;20033;-73
2022/03/08 09:07:37;;;;;;;0.00;0.00;;;20.20;99.90;;;;;;5005447;28;20124;-73
2022/03/08 09:10:05;;;;;;;0.08;0.00;;;20.20;99.90;;;;;;4994485;28;20072;-74
2022/03/08 09:12:33;;;;;;;0.50;0.40;;;20.30;99.90;;;;;;5008710;28;20025;-72
2022/03/08 09:15:02;;;;;;;0.00;0.00;;;20.20;99.90;;;;;;5012960;28;20030;-73
2022/03/08 09:17:29;;;;;;;0.00;0.00;;;20.20;99.90;;;;;;5007487;28;20025;-73
2022/03/08 09:19:57;;;;;;;0.00;0.00;;;20.20;99.90;;;;;;5013798;28;20072;-73
2022/03/08 09:22:24;;;;;;;0.00;0.00;;;20.20;99.90;;;;;;5011664;28;20803;-73
2022/03/08 09:24:52;;;;;;;0.10;0.00;;;20.10;99.90;;;;;;5011899;28;20038;-73
2022/03/08 09:27:19;;;;;;;0.00;0.00;;;20.10;99.90;;;;;;5009724;28;20026;-73
2022/03/08 09:29:47;;;;;;;0.10;0.00;;;20.10;99.90;;;;;;5009161;28;20025;-74
2022/03/08 09:32:14;;;;;;;0.00;0.00;;;20.00;99.90;;;;;;5010960;28;20026;-73
2022/03/08 09:34:42;;;;;;;0.00;0.00;;;20.00;99.90;;;;;;5010692;28;20364;-73
2022/03/08 09:37:10;;;;;;;1.38;0.00;;;19.90;99.90;;;;;;5005999;28;20440;-75
2022/03/08 09:39:37;;;;;;;0.00;0.00;;;19.90;99.90;;;;;;5010724;28;20018;-74
2022/03/08 09:42:05;;;;;;;0.35;0.10;;;19.80;99.90;;;;;;5006869;28;20045;-73
2022/03/08 09:44:32;;;;;;;0.43;0.00;;;19.80;99.90;;;;;;5013563;28;20392;-74
2022/03/08 09:47:00;;;;;;;2.75;0.00;;;19.90;99.90;;;;;;5008709;28;20148;-73
2022/03/08 09:49:27;;;;;;;0.10;0.00;;;19.80;99.90;;;;;;5016297;28;20460;-73
2022/03/08 09:51:56;;;;;;;0.75;0.00;;;19.70;99.90;;;;;;5006749;28;20030;-74
2022/03/08 09:54:23;;;;;;;0.00;0.00;;;19.70;99.90;;;;;;5002896;28;20129;-73
2022/03/08 09:56:51;;;;;;;0.28;0.00;;;19.70;99.90;;;;;;5005787;28;20378;-74
2022/03/08 09:59:19;;;;;;;3.83;0.10;;;19.70;99.90;;;;;;5009918;28;20037;-73
2022/03/08 10:01:48;;;;;;;0.00;0.00;;;19.60;99.90;;;;;;5010926;28;20048;-74
2022/03/08 10:04:20;;;;;;;0.00;0.00;;;19.60;99.90;;;;;;5005720;28;20024;-73
2022/03/08 10:06:50;;;;;;;0.00;0.00;;;19.60;99.90;;;;;;5010310;28;20033;-73
2022/03/08 10:09:23;;;;;;;0.00;0.00;;;19.60;99.90;;;;;;5006322;28;20030;-73
2022/03/08 10:11:53;;;;;;;0.20;0.00;;;19.50;99.90;;;;;;5005260;28;20088;-73
2022/03/08 10:14:38;;;;;;;0.13;0.05;;;19.50;99.90;;;;;;5008483;28;20045;-74
2022/03/08 10:17:07;;;;;;;8.95;0.22;;;19.50;99.90;;;;;;5004729;28;20392;-74
2022/03/08 10:19:48;;;;;;;1.65;0.00;;;19.40;99.90;;;;;;5011361;28;20038;-72
2022/03/08 10:22:29;;;;;;;0.75;0.20;;;19.30;99.90;;;;;;5008413;28;20052;-73
2022/03/08 10:25:25;;;;;;;0.00;0.00;;;19.40;99.90;;;;;;5005121;28;20536;-72
2022/03/08 10:27:55;;;;;;;0.10;0.00;;;19.30;99.90;;;;;;5001764;28;20476;-72
2022/03/08 10:30:24;;;;;;;0.75;0.75;;;19.40;99.90;;;;;;5008361;28;20057;-73
2022/03/08 10:32:59;;;;;;;0.00;0.00;;;19.30;99.90;;;;;;5002350;28;20033;-78
2022/03/08 10:35:28;;;;;;;0.00;0.00;;;19.30;99.90;;;;;;5004065;28;20057;-73
2022/03/08 10:38:04;;;;;;;0.00;0.00;;;19.30;99.90;;;;;;5008365;28;20108;-73
2022/03/08 10:40:34;;;;;;;;;;;19.30;99.90;;;;;;5007135;28;20049;-73
2022/03/08 10:43:04;;;;;;;0.00;0.00;;;19.30;99.90;;;;;;5009322;28;19920;-74
2022/03/08 10:45:33;;;;;;;0.00;0.00;;;19.30;99.90;;;;;;5008703;28;20368;-72
2022/03/08 10:48:01;;;;;;;0.15;0.00;;;19.30;99.90;;;;;;5005287;28;20053;-72
2022/03/08 10:50:31;;;;;;;0.00;0.00;;;19.30;99.90;;;;;;5008019;28;20535;-74
2022/03/08 10:53:00;;;;;;;1.55;0.38;;;19.30;99.90;;;;;;5008467;28;20041;-74
2022/03/08 10:55:34;;;;;;;0.10;0.00;;;19.30;99.90;;;;;;5008797;28;20133;-74
2022/03/08 10:58:08;;;;;;;0.80;0.00;;;19.30;99.90;;;;;;5005723;28;20061;-74
2022/03/08 11:00:40;;;;;;;0.60;0.00;;;19.30;99.90;;;;;;5000393;28;20061;-74
2022/03/08 11:03:11;;;;;;;1.17;0.10;;;19.30;99.90;;;;;;5009215;28;20026;-74
2022/03/08 11:05:50;;;;;;;3.20;0.00;;;19.30;99.90;;;;;;5007510;28;20034;-73
2022/03/08 11:08:18;;;;;;;0.03;0.00;;;19.30;99.90;;;;;;5005020;28;20030;-75
2022/03/08 11:10:47;;;;;;;0.10;0.00;;;19.30;99.90;;;;;;5004595;28;20034;-76
2022/03/08 11:13:17;;;;;;;0.03;0.00;;;19.20;99.90;;;;;;5007261;28;20038;-74
2022/03/08 11:15:44;;;;;;;0.00;0.00;;;19.20;99.90;;;;;;5006592;28;20318;-75
2022/03/08 11:18:14;;;;;;;0.00;0.00;;;19.30;99.90;;;;;;5005675;28;20048;-74
2022/03/08 11:20:43;;;;;;;0.40;0.08;;;19.30;99.90;;;;;;5006783;28;20400;-75
2022/03/08 11:23:11;;;;;;;0.10;0.10;;;19.20;99.90;;;;;;5009392;28;20034;-74
2022/03/08 11:25:41;;;;;;;0.00;0.00;;;19.30;99.90;;;;;;5009063;28;20057;-73
2022/03/08 11:28:09;;;;;;;0.63;0.00;;;19.30;99.90;;;;;;5003655;28;20096;-74
2022/03/08 11:30:52;;;;;;;1.45;0.00;;;19.30;99.90;;;;;;5008075;28;20168;-76
2022/03/08 11:33:32;;;;;;;0.03;0.03;;;19.30;99.90;;;;;;5009897;28;20038;-75
2022/03/08 11:36:08;;;;;;;0.17;0.00;;;19.30;99.90;;;;;;4998640;28;20104;-75
2022/03/08 11:38:35;;;;;;;0.00;0.00;;;19.30;99.90;;;;;;4999078;28;20163;-75
2022/03/08 11:41:03;;;;;;;0.00;0.00;;;19.20;99.90;;;;;;5000805;28;20049;-74
2022/03/08 11:43:46;;;;;;;0.52;0.00;;;19.30;99.90;;;;;;5004460;28;20022;-73
2022/03/08 11:46:16;;;;;;;1.65;0.00;;;19.30;99.90;;;;;;5000299;28;20519;-73
2022/03/08 11:48:51;;;;;;;0.00;0.00;;;19.20;99.90;;;;;;4996810;28;20071;-73
2022/03/08 11:51:18;;;;;;;1.55;0.00;;;19.30;99.90;;;;;;4998717;28;20167;-74
2022/03/08 11:53:47;;;;;;;1.27;0.00;;;19.20;99.90;;;;;;5004275;28;20973;-74
2022/03/08 11:56:21;;;;;;;0.00;0.00;;;19.20;99.90;;;;;;4998033;28;20057;-74
2022/03/08 11:58:49;;;;;;;0.20;0.00;;;19.10;99.90;;;;;;5009793;28;20033;-74
2022/03/08 12:01:26;;;;;;;0.00;0.00;;;19.20;99.90;;;;;;4999671;28;20042;-74
2022/03/08 12:04:04;;;;;;;0.98;0.00;;;19.20;99.90;;;;;;4996572;28;20110;-73
2022/03/08 12:06:35;;;;;;;0.28;0.00;;;19.10;99.90;;;;;;5003244;28;20060;-74
2022/03/08 12:09:15;;;;;;;1.63;0.40;;;19.20;99.90;;;;;;5006773;28;20025;-75
2022/03/08 12:12:01;;;;;;;1.20;0.00;;;19.20;99.90;;;;;;5002888;28;20026;-75
2022/03/08 12:14:40;;;;;;;0.55;0.00;;;19.10;99.90;;;;;;4991380;28;20044;-73
2022/03/08 12:17:19;;;;;;;0.00;0.00;;;19.20;99.90;;;;;;5008614;28;20029;-73
2022/03/08 12:19:59;;;;;;;1.98;0.00;;;19.10;99.90;;;;;;5005754;28;20026;-73
2022/03/08 12:22:33;;;;;;;0.00;0.00;;;19.20;99.90;;;;;;4999554;28;20037;-74
2022/03/08 12:25:00;;;;;;;0.00;0.00;;;19.10;99.90;;;;;;4996035;28;20026;-73
2022/03/08 12:27:50;;;;;;;0.00;0.00;;;19.10;99.90;;;;;;5002508;28;20038;-73
2022/03/08 12:30:17;;;;;;;0.00;0.00;;;19.10;99.90;;;;;;5006169;28;20056;-73
2022/03/08 12:32:47;;;;;;;0.10;0.00;;;19.10;99.90;;;;;;5005391;28;20056;-75
2022/03/08 12:35:25;;;;;;;0.08;0.00;;;19.10;99.90;;;;;;5002644;28;20483;-73
2022/03/08 12:37:55;;;;;;;1.00;0.00;;;19.10;99.90;;;;;;5008557;28;20038;-76
2022/03/08 12:40:35;;;;;;;0.00;0.00;;;19.00;99.90;;;;;;4994772;28;20045;-74
2022/03/08 12:43:10;;;;;;;0.08;0.00;;;19.00;99.90;;;;;;5005182;28;20112;-74
2022/03/08 12:45:41;;;;;;;0.00;0.00;;;19.00;99.90;;;;;;5008223;28;20036;-75
2022/03/08 12:48:19;;;;;;;1.77;0.05;;;19.00;99.90;;;;;;5010807;28;20172;-74
2022/03/08 12:50:48;;;;;;;0.03;0.00;;;19.00;99.90;;;;;;5009198;28;20030;-75
2022/03/08 12:53:24;;;;;;;4.65;0.10;;;19.00;99.90;;;;;;4998180;28;20022;-74
2022/03/08 12:55:54;;;;;;;0.00;0.00;;;18.90;99.90;;;;;;5002988;28;20516;-74